createdAt,value
2023-01-25T00:00:39.384Z,3.43
2023-01-25T00:02:42.835Z,3.53
2023-01-25T00:04:46.341Z,3.60
2023-01-25T00:06:50.268Z,3.63
2023-01-25T00:08:53.852Z,3.66
2023-01-25T00:10:58.554Z,3.69
2023-01-25T00:13:03.500Z,3.56
2023-01-25T00:15:08.677Z,3.59
2023-01-25T00:17:12.450Z,3.68
2023-01-25T00:19:15.867Z,3.74
2023-01-25T00:21:21.376Z,3.79
2023-01-25T00:23:24.778Z,3.82
2023-01-25T00:25:28.236Z,3.85
2023-01-25T00:27:31.598Z,3.87
2023-01-25T00:29:36.391Z,3.85
2023-01-25T00:31:47.720Z,3.85
2023-01-25T00:33:56.894Z,3.85
2023-01-25T00:36:02.557Z,3.83
2023-01-25T00:38:28.537Z,3.84
2023-01-25T00:40:31.869Z,3.70
2023-01-25T00:42:35.511Z,3.56
2023-01-25T00:44:40.509Z,2.70
2023-01-25T00:46:45.479Z,3.20
2023-01-25T00:48:49.314Z,3.10
2023-01-25T00:50:52.660Z,3.18
2023-01-25T00:52:56.059Z,3.32
2023-01-25T00:54:59.456Z,3.43
2023-01-25T00:57:03.165Z,2.90
2023-01-25T00:59:07.207Z,3.56
2023-01-25T01:01:13.004Z,3.60
2023-01-25T01:03:17.318Z,3.66
2023-01-25T01:05:22.365Z,3.72
2023-01-25T01:07:25.999Z,3.73
2023-01-25T01:09:29.513Z,3.81
2023-01-25T01:11:34.920Z,3.82
2023-01-25T01:13:38.478Z,3.84
2023-01-25T01:15:41.944Z,3.81
2023-01-25T01:17:47.135Z,3.81
2023-01-25T01:19:50.601Z,3.62
2023-01-25T01:21:54.024Z,3.54
2023-01-25T01:23:58.943Z,3.48
2023-01-25T01:26:02.978Z,3.37
2023-01-25T01:28:06.447Z,3.30
2023-01-25T01:30:11.725Z,3.22
2023-01-25T01:32:15.462Z,3.19
2023-01-25T01:34:20.774Z,3.22
2023-01-25T01:36:25.764Z,3.36
2023-01-25T01:38:30.274Z,3.48
2023-01-25T01:40:33.665Z,3.56
2023-01-25T01:42:57.538Z,3.47
2023-01-25T01:45:00.936Z,3.35
2023-01-25T01:47:04.662Z,3.28
2023-01-25T01:49:16.056Z,3.15
2023-01-25T01:51:25.546Z,3.36
2023-01-25T01:53:31.747Z,3.32
2023-01-25T01:55:35.209Z,3.32
2023-01-25T02:01:06.848Z,3.35
2023-01-25T02:03:12.318Z,3.17
2023-01-25T02:05:20.542Z,3.13
2023-01-25T02:07:35.004Z,3.19
2023-01-25T02:09:38.836Z,2.72
2023-01-25T02:11:42.975Z,2.81
2023-01-25T02:13:46.455Z,3.50
2023-01-25T02:15:56.302Z,3.45
2023-01-25T02:18:00.448Z,3.38
2023-01-25T02:20:09.722Z,3.25
2023-01-25T02:22:17.025Z,3.16
2023-01-25T02:24:29.370Z,3.32
2023-01-25T02:26:34.903Z,3.40
2023-01-25T02:28:43.539Z,3.36
2023-01-25T02:30:47.279Z,3.15
2023-01-25T02:32:52.581Z,3.06
2023-01-25T02:34:56.571Z,2.92
2023-01-25T02:37:00.720Z,2.94
2023-01-25T02:39:06.686Z,2.93
2023-01-25T02:41:14.780Z,3.00
2023-01-25T02:43:20.545Z,2.98
2023-01-25T02:45:30.577Z,2.99
2023-01-25T02:47:34.079Z,2.95
2023-01-25T02:49:39.097Z,3.00
2023-01-25T02:51:46.686Z,3.03
2023-01-25T02:53:50.574Z,2.95
2023-01-25T02:55:54.067Z,3.00
2023-01-25T02:57:57.475Z,3.03
2023-01-25T03:00:02.297Z,2.97
2023-01-25T03:02:06.060Z,3.04
2023-01-25T03:04:10.264Z,3.19
2023-01-25T03:06:13.759Z,3.30
2023-01-25T03:08:19.183Z,2.88
2023-01-25T03:10:25.231Z,3.42
2023-01-25T03:12:29.605Z,3.43
2023-01-25T03:14:33.180Z,3.37
2023-01-25T03:16:38.028Z,3.25
2023-01-25T03:18:43.709Z,3.19
2023-01-25T03:20:48.017Z,3.19
2023-01-25T03:22:51.503Z,3.22
2023-01-25T03:24:55.006Z,3.27
2023-01-25T03:27:17.115Z,3.22
2023-01-25T03:29:26.705Z,3.07
2023-01-25T03:31:30.385Z,3.07
2023-01-25T03:33:35.880Z,3.05
2023-01-25T03:35:39.665Z,2.97
2023-01-25T03:37:43.943Z,3.02
2023-01-25T03:39:47.697Z,2.81
2023-01-25T03:41:51.418Z,2.92
2023-01-25T03:43:55.238Z,2.96
2023-01-25T03:46:01.372Z,2.93
2023-01-25T03:48:07.224Z,2.17
2023-01-25T03:50:12.783Z,2.82
2023-01-25T03:52:17.372Z,2.81
2023-01-25T03:54:21.029Z,2.93
2023-01-25T03:56:24.391Z,2.95
2023-01-25T03:58:39.452Z,2.89
2023-01-25T04:00:45.236Z,2.89
2023-01-25T04:02:49.393Z,2.90
2023-01-25T04:04:55.237Z,3.00
2023-01-25T04:07:00.842Z,3.00
2023-01-25T04:09:06.787Z,3.03
2023-01-25T04:11:15.783Z,2.97
2023-01-25T04:13:22.686Z,2.93
2023-01-25T04:15:27.119Z,2.92
2023-01-25T04:17:32.501Z,2.91
2023-01-25T04:19:39.173Z,2.92
2023-01-25T04:21:47.046Z,2.91
2023-01-25T04:23:51.905Z,2.93
2023-01-25T04:25:56.207Z,2.98
2023-01-25T04:28:00.135Z,3.12
2023-01-25T04:30:03.871Z,3.05
2023-01-25T04:32:10.816Z,2.98
2023-01-25T04:34:14.739Z,2.86
2023-01-25T04:36:18.247Z,2.75
2023-01-25T04:38:23.237Z,2.80
2023-01-25T04:40:28.684Z,2.73
2023-01-25T04:42:32.412Z,2.25
2023-01-25T04:44:35.812Z,2.62
2023-01-25T04:46:39.969Z,2.59
2023-01-25T04:48:43.700Z,2.62
2023-01-25T04:50:47.667Z,2.50
2023-01-25T04:52:51.382Z,2.54
2023-01-25T04:54:54.906Z,2.52
2023-01-25T04:57:00.248Z,2.72
2023-01-25T04:59:04.094Z,2.66
2023-01-25T05:01:08.916Z,2.65
2023-01-25T05:03:12.382Z,2.68
2023-01-25T05:05:16.148Z,2.58
2023-01-25T05:07:22.463Z,2.52
2023-01-25T05:09:26.503Z,2.49
2023-01-25T05:11:30.767Z,2.51
2023-01-25T05:13:58.394Z,2.50
2023-01-25T05:16:09.134Z,2.55
2023-01-25T05:18:14.210Z,2.56
2023-01-25T05:20:17.864Z,2.50
2023-01-25T05:22:21.787Z,2.53
2023-01-25T05:24:30.214Z,1.90
2023-01-25T05:26:52.754Z,2.42
2023-01-25T05:28:56.318Z,2.39
2023-01-25T05:31:16.366Z,2.38
2023-01-25T05:33:20.185Z,1.96
2023-01-25T05:35:23.627Z,2.38
2023-01-25T05:37:30.821Z,2.42
2023-01-25T05:39:39.301Z,2.56
2023-01-25T05:41:42.769Z,2.75
2023-01-25T05:43:49.154Z,2.78
2023-01-25T05:45:54.803Z,2.90
2023-01-25T05:48:00.699Z,2.99
2023-01-25T05:50:04.500Z,3.09
2023-01-25T05:52:29.481Z,3.14
2023-01-25T05:54:32.988Z,3.09
2023-01-25T05:56:40.825Z,3.03
2023-01-25T05:58:44.845Z,3.09
2023-01-25T06:00:48.333Z,3.09
2023-01-25T06:03:04.825Z,3.06
2023-01-25T06:05:11.924Z,3.07
2023-01-25T06:07:15.547Z,2.98
2023-01-25T06:09:19.430Z,3.01
2023-01-25T06:11:25.224Z,2.99
2023-01-25T06:13:30.749Z,2.95
2023-01-25T06:15:35.197Z,2.84
2023-01-25T06:17:57.786Z,2.86
2023-01-25T06:20:12.084Z,2.74
2023-01-25T06:22:31.905Z,2.70
2023-01-25T06:24:35.315Z,2.37
2023-01-25T06:26:38.824Z,2.87
2023-01-25T06:28:42.467Z,2.97
2023-01-25T06:30:45.984Z,2.93
2023-01-25T06:32:50.455Z,2.91
2023-01-25T06:34:53.852Z,2.88
2023-01-25T06:37:01.867Z,2.87
2023-01-25T06:39:05.740Z,2.81
2023-01-25T06:41:12.310Z,2.72
2023-01-25T06:43:15.684Z,2.76
2023-01-25T06:45:19.442Z,2.84
2023-01-25T06:47:22.928Z,2.99
2023-01-25T06:49:26.402Z,3.02
2023-01-25T06:51:30.440Z,3.09
2023-01-25T06:53:37.355Z,3.13
2023-01-25T06:55:40.874Z,3.14
2023-01-25T06:57:44.284Z,3.16
2023-01-25T06:59:47.668Z,3.16
2023-01-25T07:01:51.303Z,3.19
2023-01-25T07:03:56.833Z,4.10
2023-01-25T07:06:00.806Z,5.41
2023-01-25T07:08:04.231Z,6.06
2023-01-25T07:10:10.563Z,5.59
2023-01-25T07:12:13.977Z,5.19
2023-01-25T07:14:17.699Z,4.61
2023-01-25T07:16:21.791Z,4.05
2023-01-25T07:18:25.899Z,3.20
2023-01-25T07:20:29.291Z,3.57
2023-01-25T07:22:32.731Z,3.30
2023-01-25T07:24:36.147Z,3.27
2023-01-25T07:26:40.955Z,3.37
2023-01-25T07:28:44.843Z,3.45
2023-01-25T07:30:49.138Z,3.48
2023-01-25T07:32:52.490Z,3.38
2023-01-25T07:34:55.981Z,3.13
2023-01-25T07:36:59.560Z,2.52
2023-01-25T07:39:02.977Z,2.90
2023-01-25T07:41:07.122Z,3.02
2023-01-25T07:43:11.970Z,3.07
2023-01-25T07:45:15.577Z,3.14
2023-01-25T07:47:19.273Z,3.17
2023-01-25T07:49:22.822Z,3.14
2023-01-25T07:51:27.981Z,3.07
2023-01-25T07:53:31.545Z,3.00
2023-01-25T07:55:35.393Z,3.01
2023-01-25T07:57:38.870Z,3.08
2023-01-25T07:59:43.696Z,3.10
2023-01-25T08:01:47.110Z,3.12
2023-01-25T08:03:51.545Z,3.14
2023-01-25T08:05:55.112Z,3.10
2023-01-25T08:07:58.622Z,3.16
2023-01-25T08:10:02.044Z,3.22
2023-01-25T08:12:08.536Z,3.29
2023-01-25T08:14:12.421Z,3.22
2023-01-25T08:16:18.994Z,2.97
2023-01-25T08:18:22.415Z,2.78
2023-01-25T08:20:25.845Z,2.67
2023-01-25T08:22:29.382Z,2.57
2023-01-25T08:24:32.825Z,2.54
2023-01-25T08:26:37.508Z,2.47
2023-01-25T08:28:41.425Z,2.49
2023-01-25T08:30:56.383Z,2.59
2023-01-25T08:33:03.165Z,2.55
2023-01-25T08:35:08.062Z,2.57
2023-01-25T08:37:11.765Z,2.66
2023-01-25T08:39:15.144Z,2.85
2023-01-25T08:41:20.459Z,2.79
2023-01-25T08:43:23.832Z,2.69
2023-01-25T08:45:27.237Z,2.65
2023-01-25T08:47:31.237Z,2.71
2023-01-25T08:49:36.076Z,2.83
2023-01-25T08:51:39.647Z,2.90
2023-01-25T08:53:43.760Z,2.94
2023-01-25T08:55:47.446Z,2.97
2023-01-25T08:57:50.834Z,2.94
2023-01-25T08:59:54.217Z,2.87
2023-01-25T09:01:57.608Z,2.86
2023-01-25T09:04:01.130Z,2.99
2023-01-25T09:06:06.651Z,3.07
2023-01-25T09:08:11.665Z,3.08
2023-01-25T09:10:15.337Z,3.14
2023-01-25T09:12:18.801Z,3.17
2023-01-25T09:14:22.287Z,3.31
2023-01-25T09:16:30.119Z,3.27
2023-01-25T09:18:34.543Z,3.26
2023-01-25T09:20:40.800Z,3.37
2023-01-25T09:22:45.668Z,3.37
2023-01-25T09:24:52.190Z,3.12
2023-01-25T09:26:59.599Z,2.84
2023-01-25T09:29:03.284Z,2.65
2023-01-25T09:31:21.060Z,2.55
2023-01-25T09:33:41.973Z,2.58
2023-01-25T09:35:49.289Z,2.55
2023-01-25T09:37:54.103Z,2.50
2023-01-25T09:39:57.483Z,2.52
2023-01-25T09:42:24.560Z,2.32
2023-01-25T09:44:42.430Z,2.91
2023-01-25T09:46:48.936Z,3.07
2023-01-25T09:49:07.604Z,3.03
2023-01-25T09:51:23.666Z,2.83
2023-01-25T09:53:34.584Z,2.38
2023-01-25T09:55:39.099Z,2.73
2023-01-25T09:57:44.869Z,2.62
2023-01-25T09:59:51.264Z,2.54
2023-01-25T10:01:58.424Z,2.53
2023-01-25T10:04:06.343Z,2.53
2023-01-25T10:06:14.079Z,2.66
2023-01-25T10:08:26.231Z,2.63
2023-01-25T10:10:36.767Z,2.65
2023-01-25T10:12:40.782Z,2.76
2023-01-25T10:14:44.199Z,2.69
2023-01-25T10:16:59.520Z,2.75
2023-01-25T10:19:17.121Z,2.80
2023-01-25T10:21:26.832Z,2.82
2023-01-25T10:24:01.944Z,2.70
2023-01-25T10:26:14.582Z,2.59
2023-01-25T10:28:35.605Z,2.56
2023-01-25T10:30:45.245Z,2.59
2023-01-25T10:32:56.225Z,2.79
2023-01-25T10:35:17.444Z,2.71
2023-01-25T10:37:25.971Z,2.71
2023-01-25T10:39:30.628Z,2.61
2023-01-25T10:41:40.833Z,2.11
2023-01-25T10:43:44.422Z,2.74
2023-01-25T10:45:48.892Z,2.82
2023-01-25T10:48:00.964Z,2.93
2023-01-25T10:50:04.726Z,2.91
2023-01-25T10:52:17.067Z,2.80
2023-01-25T10:54:23.796Z,2.67
2023-01-25T10:56:28.951Z,2.58
2023-01-25T10:58:37.072Z,2.62
2023-01-25T11:00:42.110Z,2.68
2023-01-25T11:02:47.223Z,2.65
2023-01-25T11:04:50.750Z,2.65
2023-01-25T11:06:54.124Z,2.57
2023-01-25T11:08:57.710Z,2.58
2023-01-25T11:11:13.610Z,2.54
2023-01-25T11:13:22.992Z,2.51
2023-01-25T11:15:27.833Z,2.55
2023-01-25T11:17:32.479Z,2.56
2023-01-25T11:19:37.634Z,2.51
2023-01-25T11:21:53.126Z,2.53
2023-01-25T11:24:01.583Z,1.89
2023-01-25T11:26:14.235Z,2.42
2023-01-25T11:28:23.024Z,2.45
2023-01-25T11:30:27.752Z,2.48
2023-01-25T11:32:31.222Z,2.60
2023-01-25T11:34:34.608Z,2.62
2023-01-25T11:36:46.464Z,2.54
2023-01-25T11:39:07.269Z,2.50
2023-01-25T11:41:18.275Z,2.56
2023-01-25T11:43:39.507Z,2.54
2023-01-25T11:46:06.369Z,2.57
2023-01-25T11:48:25.962Z,2.77
2023-01-25T11:50:36.677Z,2.80
2023-01-25T11:52:59.951Z,2.52
2023-01-25T11:55:20.451Z,1.74
2023-01-25T11:57:45.180Z,2.32
2023-01-25T12:00:02.299Z,2.47
2023-01-25T12:02:24.070Z,2.72
2023-01-25T12:04:48.557Z,2.67
2023-01-25T12:06:59.853Z,2.78
2023-01-25T12:09:22.385Z,2.90
2023-01-25T12:11:44.550Z,2.75
2023-01-25T12:13:54.324Z,2.68
2023-01-25T12:16:12.956Z,2.66
2023-01-25T12:18:33.414Z,2.80
2023-01-25T12:20:56.684Z,2.96
2023-01-25T12:23:16.819Z,2.91
2023-01-25T12:25:29.139Z,2.86
2023-01-25T12:27:45.273Z,2.93
2023-01-25T12:29:55.671Z,2.95
2023-01-25T12:32:05.012Z,3.05
2023-01-25T12:34:17.201Z,3.06
2023-01-25T12:36:28.175Z,2.91
2023-01-25T12:38:39.210Z,2.88
2023-01-25T12:40:49.999Z,2.65
2023-01-25T12:42:57.545Z,2.56
2023-01-25T12:45:06.081Z,2.51
2023-01-25T12:47:21.221Z,1.85
2023-01-25T12:49:31.039Z,2.51
2023-01-25T12:51:42.655Z,2.04
2023-01-25T12:53:48.163Z,2.67
2023-01-25T12:55:53.342Z,2.75
2023-01-25T12:58:03.239Z,2.76
2023-01-25T13:00:18.912Z,2.82
2023-01-25T13:02:37.750Z,2.73
2023-01-25T13:04:57.906Z,2.87
2023-01-25T13:07:10.975Z,2.37
2023-01-25T13:09:21.468Z,3.03
2023-01-25T13:11:31.236Z,2.97
2023-01-25T13:13:34.685Z,3.00
2023-01-25T13:15:40.288Z,3.05
2023-01-25T13:17:43.928Z,3.01
2023-01-25T13:19:49.812Z,2.98
2023-01-25T13:21:56.598Z,2.93
2023-01-25T13:24:21.742Z,2.83
2023-01-25T13:26:49.607Z,2.92
2023-01-25T13:28:55.156Z,2.97
2023-01-25T13:30:58.579Z,2.88
2023-01-25T13:33:06.253Z,2.89
2023-01-25T13:35:36.927Z,2.99
2023-01-25T13:37:42.414Z,2.91
2023-01-25T13:39:48.574Z,2.24
2023-01-25T13:42:01.809Z,2.86
2023-01-25T13:44:26.190Z,2.95
2023-01-25T13:46:29.723Z,2.99
2023-01-25T13:48:38.199Z,3.08
2023-01-25T13:50:48.389Z,3.00
2023-01-25T13:52:59.572Z,3.00
2023-01-25T13:55:03.121Z,3.09
2023-01-25T13:57:08.901Z,3.10
2023-01-25T13:59:26.232Z,3.05
2023-01-25T14:01:32.161Z,3.07
2023-01-25T14:03:38.339Z,3.03
2023-01-25T14:05:52.218Z,3.09
2023-01-25T14:07:58.279Z,2.97
2023-01-25T14:10:03.375Z,2.74
2023-01-25T14:12:11.546Z,2.90
2023-01-25T14:14:21.850Z,2.94
2023-01-25T14:16:27.416Z,2.97
2023-01-25T14:18:32.945Z,3.00
2023-01-25T14:20:36.444Z,3.09
2023-01-25T14:22:47.775Z,3.17
2023-01-25T14:25:07.146Z,3.25
2023-01-25T14:27:15.241Z,3.09
2023-01-25T14:29:36.172Z,3.12
2023-01-25T14:31:41.150Z,3.15
2023-01-25T14:33:47.784Z,3.10
2023-01-25T14:35:58.450Z,3.03
2023-01-25T14:38:21.800Z,2.99
2023-01-25T14:40:27.375Z,3.02
2023-01-25T14:42:30.879Z,3.07
2023-01-25T14:44:35.059Z,3.11
2023-01-25T14:46:39.883Z,3.09
2023-01-25T14:48:45.010Z,3.12
2023-01-25T14:50:48.670Z,2.96
2023-01-25T14:52:52.190Z,2.99
2023-01-25T14:54:59.826Z,3.03
2023-01-25T14:57:05.125Z,2.48
2023-01-25T14:59:21.132Z,2.96
2023-01-25T15:01:32.645Z,2.95
2023-01-25T15:03:36.097Z,2.98
2023-01-25T15:05:39.575Z,2.88
2023-01-25T15:07:45.754Z,2.92
2023-01-25T15:10:05.013Z,2.84
2023-01-25T15:12:28.521Z,2.90
2023-01-25T15:14:32.589Z,2.32
2023-01-25T15:16:36.571Z,2.91
2023-01-25T15:18:48.722Z,2.15
2023-01-25T15:20:53.374Z,2.18
2023-01-25T15:22:57.565Z,2.61
2023-01-25T15:25:03.221Z,2.42
2023-01-25T15:27:11.553Z,2.29
2023-01-25T15:29:17.187Z,2.38
2023-01-25T15:31:23.532Z,2.33
2023-01-25T15:33:29.697Z,2.29
2023-01-25T15:35:34.608Z,2.21
2023-01-25T15:37:38.023Z,2.29
2023-01-25T15:39:41.444Z,2.13
2023-01-25T15:41:46.744Z,2.14
2023-01-25T15:43:50.764Z,2.16
2023-01-25T15:45:56.755Z,2.21
2023-01-25T15:48:00.532Z,2.17
2023-01-25T15:50:04.090Z,2.17
2023-01-25T15:52:07.499Z,2.30
2023-01-25T15:54:10.969Z,2.32
2023-01-25T15:56:16.831Z,2.29
2023-01-25T15:58:25.148Z,1.53
2023-01-25T16:00:28.663Z,2.27
2023-01-25T16:02:32.211Z,2.35
2023-01-25T16:04:37.764Z,2.44
2023-01-25T16:06:42.877Z,2.52
2023-01-25T16:08:46.335Z,2.64
2023-01-25T16:10:49.949Z,2.58
2023-01-25T16:12:53.312Z,2.57
2023-01-25T16:14:58.154Z,2.43
2023-01-25T16:17:04.488Z,2.34
2023-01-25T16:19:08.112Z,2.36
2023-01-25T16:21:12.692Z,2.29
2023-01-25T16:23:16.138Z,2.28
2023-01-25T16:25:19.565Z,2.37
2023-01-25T16:27:25.757Z,2.46
2023-01-25T16:29:29.476Z,2.52
2023-01-25T16:31:34.422Z,2.51
2023-01-25T16:33:37.856Z,2.50
2023-01-25T16:35:41.395Z,2.46
2023-01-25T16:37:44.846Z,2.45
2023-01-25T16:39:48.294Z,2.49
2023-01-25T16:41:51.845Z,2.52
2023-01-25T16:43:55.241Z,2.56
2023-01-25T16:45:59.621Z,2.54
2023-01-25T16:48:04.590Z,2.64
2023-01-25T16:50:13.606Z,2.72
2023-01-25T16:52:16.997Z,2.77
2023-01-25T16:54:21.509Z,2.78
2023-01-25T16:56:27.167Z,2.86
2023-01-25T16:58:30.590Z,2.90
2023-01-25T17:00:34.025Z,2.93
2023-01-25T17:02:40.102Z,2.93
2023-01-25T17:04:46.640Z,3.00
2023-01-25T17:06:52.970Z,3.05
2023-01-25T17:09:00.317Z,3.07
2023-01-25T17:11:05.135Z,3.05
2023-01-25T17:13:08.778Z,2.83
2023-01-25T17:15:12.380Z,2.70
2023-01-25T17:17:15.827Z,2.70
2023-01-25T17:19:20.247Z,2.66
2023-01-25T17:21:25.658Z,2.67
2023-01-25T17:23:30.041Z,2.72
2023-01-25T17:25:35.450Z,2.64
2023-01-25T17:27:38.905Z,2.72
2023-01-25T17:29:42.523Z,2.81
2023-01-25T17:31:45.986Z,2.80
2023-01-25T17:33:50.271Z,2.75
2023-01-25T17:35:58.329Z,2.55
2023-01-25T17:38:03.186Z,2.45
2023-01-25T17:40:07.888Z,2.48
2023-01-25T17:42:13.178Z,2.56
2023-01-25T17:44:20.489Z,2.60
2023-01-25T17:46:26.431Z,2.41
2023-01-25T17:48:30.029Z,2.42
2023-01-25T17:50:33.544Z,2.52
2023-01-25T17:52:37.011Z,2.55
2023-01-25T17:54:41.854Z,2.44
2023-01-25T17:56:45.362Z,2.52
2023-01-25T17:58:48.923Z,1.89
2023-01-25T18:00:55.179Z,2.39
2023-01-25T18:03:02.666Z,2.44
2023-01-25T18:05:07.940Z,2.47
2023-01-25T18:07:11.383Z,2.49
2023-01-25T18:09:14.838Z,2.37
2023-01-25T18:11:21.874Z,1.97
2023-01-25T18:13:25.271Z,2.11
2023-01-25T18:15:28.679Z,2.17
2023-01-25T18:17:35.499Z,2.17
2023-01-25T18:19:39.125Z,2.10
2023-01-25T18:21:43.360Z,2.12
2023-01-25T18:23:48.485Z,2.14
2023-01-25T18:25:51.961Z,2.19
2023-01-25T18:27:56.762Z,2.22
2023-01-25T18:30:02.446Z,2.13
2023-01-25T18:32:06.666Z,2.18
2023-01-25T18:34:10.161Z,2.29
2023-01-25T18:36:15.145Z,1.66
2023-01-25T18:38:18.643Z,2.14
2023-01-25T18:40:22.258Z,2.09
2023-01-25T18:42:27.567Z,2.12
2023-01-25T18:44:32.898Z,2.20
2023-01-25T18:46:36.623Z,2.23
2023-01-25T18:48:40.263Z,2.28
2023-01-25T18:50:44.067Z,2.31
2023-01-25T18:52:47.780Z,2.23
2023-01-25T18:54:51.410Z,2.23
2023-01-25T18:56:55.488Z,2.27
2023-01-25T18:58:59.387Z,2.28
2023-01-25T19:01:06.516Z,2.28
2023-01-25T19:03:09.922Z,2.30
2023-01-25T19:05:14.335Z,2.30
2023-01-25T19:07:18.265Z,2.21
2023-01-25T19:09:21.900Z,1.90
2023-01-25T19:11:26.547Z,2.16
2023-01-25T19:13:32.378Z,2.18
2023-01-25T19:15:35.921Z,2.25
2023-01-25T19:17:40.768Z,2.26
2023-01-25T19:19:44.379Z,2.26
2023-01-25T19:21:48.112Z,2.28
2023-01-25T19:23:52.133Z,2.11
2023-01-25T19:25:55.802Z,2.26
2023-01-25T19:27:59.339Z,2.22
2023-01-25T19:30:02.930Z,2.07
2023-01-25T19:32:06.615Z,2.14
2023-01-25T19:34:11.413Z,2.11
2023-01-25T19:36:18.364Z,2.08
2023-01-25T19:38:21.830Z,2.26
2023-01-25T19:40:25.204Z,2.27
2023-01-25T19:42:28.629Z,2.31
2023-01-25T19:44:32.169Z,2.27
2023-01-25T19:46:37.176Z,1.67
2023-01-25T19:48:42.450Z,2.26
2023-01-25T19:50:47.490Z,2.26
2023-01-25T19:52:50.920Z,2.27
2023-01-25T19:54:54.293Z,2.32
2023-01-25T19:56:58.526Z,2.32
2023-01-25T19:59:04.920Z,2.33
2023-01-25T20:01:09.333Z,2.36
2023-01-25T20:03:16.698Z,2.26
2023-01-25T20:05:21.170Z,2.19
2023-01-25T20:07:27.739Z,2.21
2023-01-25T20:09:31.275Z,2.05
2023-01-25T20:11:35.133Z,1.97
2023-01-25T20:13:38.600Z,2.02
2023-01-25T20:15:47.416Z,2.12
2023-01-25T20:17:50.803Z,2.20
2023-01-25T20:19:54.195Z,2.23
2023-01-25T20:22:00.299Z,2.08
2023-01-25T20:24:06.700Z,1.96
2023-01-25T20:26:13.690Z,1.93
2023-01-25T20:28:17.197Z,1.87
2023-01-25T20:30:20.796Z,1.84
2023-01-25T20:32:32.656Z,1.90
2023-01-25T20:34:37.030Z,2.01
2023-01-25T20:36:41.321Z,1.33
2023-01-25T20:38:44.821Z,1.84
2023-01-25T20:40:49.682Z,1.88
2023-01-25T20:42:53.025Z,1.89
2023-01-25T20:44:56.479Z,1.64
2023-01-25T20:46:59.968Z,1.55
2023-01-25T20:49:05.063Z,1.65
2023-01-25T20:51:12.984Z,1.69
2023-01-25T20:53:17.096Z,1.76
2023-01-25T20:55:20.576Z,1.72
2023-01-25T20:57:25.369Z,1.48
2023-01-25T20:59:28.731Z,1.53
2023-01-25T21:01:36.677Z,1.60
2023-01-25T21:03:40.249Z,1.69
2023-01-25T21:05:50.217Z,1.53
2023-01-25T21:07:54.108Z,1.50
2023-01-25T21:09:57.616Z,1.63
2023-01-25T21:12:01.022Z,1.68
2023-01-25T21:14:05.850Z,1.80
2023-01-25T21:16:11.154Z,1.90
2023-01-25T21:18:14.586Z,1.82
2023-01-25T21:20:18.123Z,1.83
2023-01-25T21:22:21.540Z,1.87
2023-01-25T21:24:25.243Z,1.64
2023-01-25T21:26:30.917Z,1.20
2023-01-25T21:28:35.412Z,1.78
2023-01-25T21:30:40.229Z,1.72
2023-01-25T21:32:43.609Z,2.01
2023-01-25T21:34:47.279Z,2.05
2023-01-25T21:36:51.495Z,2.08
2023-01-25T21:38:56.010Z,2.26
2023-01-25T21:41:01.640Z,2.13
2023-01-25T21:43:05.192Z,2.19
2023-01-25T21:45:28.712Z,2.14
2023-01-25T21:47:33.608Z,2.06
2023-01-25T21:49:54.446Z,1.90
2023-01-25T21:52:01.928Z,1.79
2023-01-25T21:54:05.870Z,1.80
2023-01-25T21:56:09.543Z,1.79
2023-01-25T21:58:14.191Z,1.82
2023-01-25T22:00:18.460Z,1.82
2023-01-25T22:02:21.929Z,1.80
2023-01-25T22:04:27.102Z,1.77
2023-01-25T22:06:30.729Z,1.73
2023-01-25T22:08:34.643Z,1.17
2023-01-25T22:10:37.996Z,1.79
2023-01-25T22:12:41.410Z,1.77
2023-01-25T22:14:44.790Z,1.77
2023-01-25T22:16:48.403Z,1.84
2023-01-25T22:18:52.127Z,1.79
2023-01-25T22:21:01.228Z,1.76
2023-01-25T22:23:04.598Z,1.86
2023-01-25T22:25:08.498Z,1.87
2023-01-25T22:27:31.923Z,1.30
2023-01-25T22:29:35.421Z,1.72
2023-01-25T22:31:39.867Z,1.76
2023-01-25T22:33:43.825Z,1.83
2023-01-25T22:35:47.218Z,1.70
2023-01-25T22:37:51.961Z,1.63
2023-01-25T22:39:58.329Z,1.55
2023-01-25T22:42:01.852Z,1.48
2023-01-25T22:44:05.589Z,1.51
2023-01-25T22:46:11.730Z,1.62
2023-01-25T22:48:15.190Z,1.62
2023-01-25T22:50:18.623Z,1.53
2023-01-25T22:52:23.262Z,1.49
2023-01-25T22:54:27.980Z,1.53
2023-01-25T22:56:33.686Z,0.95
2023-01-25T22:58:38.499Z,1.41
2023-01-25T23:00:42.023Z,1.35
2023-01-25T23:02:45.629Z,1.31
2023-01-25T23:04:49.135Z,1.36
2023-01-25T23:07:02.471Z,1.42
2023-01-25T23:09:07.753Z,1.49
2023-01-25T23:11:14.764Z,1.37
2023-01-25T23:13:18.251Z,1.42
2023-01-25T23:15:20.787Z,1.35
2023-01-25T23:17:42.866Z,1.37
2023-01-25T23:19:46.273Z,1.48
2023-01-25T23:21:49.735Z,1.54
2023-01-25T23:23:53.370Z,1.52
2023-01-25T23:25:58.029Z,1.53
2023-01-25T23:28:02.852Z,1.49
2023-01-25T23:30:09.249Z,1.47
2023-01-25T23:32:12.952Z,1.43
2023-01-25T23:34:16.412Z,1.44
2023-01-25T23:36:22.138Z,1.47
2023-01-25T23:38:25.533Z,1.45
2023-01-25T23:40:29.036Z,1.42
2023-01-25T23:42:32.411Z,1.39
2023-01-25T23:44:37.170Z,1.40
2023-01-25T23:46:40.601Z,1.40
2023-01-25T23:48:44.493Z,1.34
2023-01-25T23:50:47.902Z,1.30
2023-01-25T23:52:51.324Z,1.28
2023-01-25T23:54:54.733Z,1.27
2023-01-25T23:56:58.152Z,1.29
2023-01-25T23:59:01.710Z,1.31
